createdAt,value
2023-04-10T00:00:08.051Z,23.43
2023-04-10T00:01:08.064Z,23.41
2023-04-10T00:02:08.079Z,23.39
2023-04-10T00:03:08.391Z,23.41
2023-04-10T00:04:08.148Z,23.42
2023-04-10T00:05:08.301Z,23.39
2023-04-10T00:06:08.154Z,23.41
2023-04-10T00:07:08.095Z,23.42
2023-04-10T00:08:08.123Z,23.37
2023-04-10T00:09:08.104Z,23.39
2023-04-10T00:10:08.131Z,23.46
2023-04-10T00:11:08.160Z,23.42
2023-04-10T00:12:08.169Z,23.37
2023-04-10T00:13:08.548Z,23.45
2023-04-10T00:14:08.198Z,23.42
2023-04-10T00:15:08.178Z,23.45
2023-04-10T00:16:08.266Z,23.39
2023-04-10T00:17:08.254Z,23.42
2023-04-10T00:18:08.297Z,23.42
2023-04-10T00:19:08.240Z,23.46
2023-04-10T00:20:08.234Z,23.36
2023-04-10T00:21:08.268Z,23.42
2023-04-10T00:22:08.256Z,23.43
2023-04-10T00:23:08.329Z,23.45
2023-04-10T00:24:08.315Z,23.43
2023-04-10T00:25:08.277Z,23.38
2023-04-10T00:26:08.301Z,23.40
2023-04-10T00:27:08.331Z,23.46
2023-04-10T00:28:08.337Z,23.38
2023-04-10T00:29:08.333Z,23.40
2023-04-10T00:30:08.363Z,23.40
2023-04-10T00:31:08.358Z,23.45
2023-04-10T00:32:08.428Z,23.40
2023-04-10T00:33:08.525Z,23.45
2023-04-10T00:34:08.451Z,23.45
2023-04-10T00:35:08.464Z,23.48
2023-04-10T00:36:08.445Z,23.46
2023-04-10T00:37:08.451Z,23.46
2023-04-10T00:38:08.481Z,23.40
2023-04-10T00:39:08.479Z,23.43
2023-04-10T00:40:08.545Z,23.43
2023-04-10T00:41:08.536Z,23.45
2023-04-10T00:42:08.529Z,23.43
2023-04-10T00:43:08.549Z,23.42
2023-04-10T00:44:08.595Z,23.42
2023-04-10T00:45:08.603Z,23.43
2023-04-10T00:46:08.633Z,23.46
2023-04-10T00:47:08.653Z,23.45
2023-04-10T00:48:08.711Z,23.45
2023-04-10T00:49:08.649Z,23.43
2023-04-10T00:50:08.653Z,23.45
2023-04-10T00:51:08.657Z,23.40
2023-04-10T00:52:08.689Z,23.43
2023-04-10T00:53:08.751Z,23.42
2023-04-10T00:54:08.729Z,23.43
2023-04-10T00:55:08.739Z,23.45
2023-04-10T00:56:08.733Z,23.40
2023-04-10T00:57:08.751Z,23.45
2023-04-10T00:58:08.815Z,23.40
2023-04-10T00:59:09.053Z,23.46
2023-04-10T01:00:08.798Z,23.38
2023-04-10T01:01:08.929Z,23.47
2023-04-10T01:02:08.905Z,23.45
2023-04-10T01:03:08.991Z,23.44
2023-04-10T01:04:08.975Z,23.44
2023-04-10T01:05:08.909Z,23.45
2023-04-10T01:06:08.906Z,23.46
2023-04-10T01:07:08.942Z,23.40
2023-04-10T01:08:08.907Z,23.43
2023-04-10T01:09:08.978Z,23.43
2023-04-10T01:10:08.970Z,23.41
2023-04-10T01:11:08.973Z,23.47
2023-04-10T01:12:09.005Z,23.47
2023-04-10T01:13:09.018Z,23.47
2023-04-10T01:14:09.053Z,23.48
2023-04-10T01:15:09.066Z,23.44
2023-04-10T01:16:09.105Z,23.47
2023-04-10T01:17:09.160Z,23.46
2023-04-10T01:18:09.166Z,23.44
2023-04-10T01:19:09.121Z,23.48
2023-04-10T01:20:09.185Z,23.53
2023-04-10T01:21:09.223Z,23.53
2023-04-10T01:22:09.249Z,23.47
2023-04-10T01:23:09.230Z,23.48
2023-04-10T01:24:09.229Z,23.47
2023-04-10T01:25:09.266Z,23.50
2023-04-10T01:26:09.330Z,23.47
2023-04-10T01:27:09.300Z,23.42
2023-04-10T01:28:09.352Z,23.41
2023-04-10T01:29:09.389Z,23.50
2023-04-10T01:30:09.387Z,23.52
2023-04-10T01:31:09.463Z,23.48
2023-04-10T01:32:09.445Z,23.51
2023-04-10T01:33:09.469Z,23.44
2023-04-10T01:34:09.592Z,23.47
2023-04-10T01:35:09.496Z,23.48
2023-04-10T01:36:09.541Z,23.44
2023-04-10T01:37:09.560Z,23.48
2023-04-10T01:38:09.607Z,23.47
2023-04-10T01:39:09.635Z,23.47
2023-04-10T01:40:09.620Z,23.45
2023-04-10T01:41:09.621Z,23.44
2023-04-10T01:42:09.691Z,23.41
2023-04-10T01:43:09.700Z,23.45
2023-04-10T01:44:09.729Z,23.47
2023-04-10T01:45:09.758Z,23.47
2023-04-10T01:46:09.780Z,23.44
2023-04-10T01:47:09.778Z,23.47
2023-04-10T01:48:09.791Z,23.47
2023-04-10T01:49:09.841Z,23.45
2023-04-10T01:50:09.841Z,23.47
2023-04-10T01:51:09.821Z,23.48
2023-04-10T01:52:09.862Z,23.47
2023-04-10T01:53:09.885Z,23.48
2023-04-10T01:54:09.925Z,23.44
2023-04-10T01:55:09.886Z,23.50
2023-04-10T01:56:09.930Z,23.47
2023-04-10T01:57:09.988Z,23.47
2023-04-10T01:58:09.944Z,23.49
2023-04-10T01:59:10.001Z,23.51
2023-04-10T02:00:10.040Z,23.48
2023-04-10T02:01:16.362Z,23.51
2023-04-10T02:02:11.057Z,23.50
2023-04-10T02:03:10.236Z,23.52
2023-04-10T02:04:10.122Z,23.48
2023-04-10T02:05:10.034Z,23.54
2023-04-10T02:06:09.995Z,23.48
2023-04-10T02:07:09.990Z,23.51
2023-04-10T02:08:09.977Z,23.49
2023-04-10T02:09:09.976Z,23.54
2023-04-10T02:10:09.944Z,23.51
2023-04-10T02:11:09.938Z,23.52
2023-04-10T02:12:09.941Z,23.51
2023-04-10T02:13:09.952Z,23.52
2023-04-10T02:14:10.138Z,23.52
2023-04-10T02:15:09.901Z,23.54
2023-04-10T02:16:09.942Z,23.54
2023-04-10T02:17:09.875Z,23.51
2023-04-10T02:18:09.909Z,23.51
2023-04-10T02:19:09.897Z,23.55
2023-04-10T02:20:09.952Z,23.54
2023-04-10T02:21:10.022Z,23.55
2023-04-10T02:22:09.997Z,23.54
2023-04-10T02:23:10.046Z,23.55
2023-04-10T02:24:10.084Z,23.52
2023-04-10T02:25:10.136Z,23.54
2023-04-10T02:26:10.095Z,23.56
2023-04-10T02:27:10.162Z,23.55
2023-04-10T02:28:10.142Z,23.54
2023-04-10T02:29:10.183Z,23.53
2023-04-10T02:30:10.207Z,23.56
2023-04-10T02:31:10.276Z,23.58
2023-04-10T02:32:10.264Z,23.57
2023-04-10T02:33:10.315Z,23.53
2023-04-10T02:34:10.296Z,23.56
2023-04-10T02:35:10.349Z,23.62
2023-04-10T02:36:10.425Z,23.58
2023-04-10T02:37:10.425Z,23.59
2023-04-10T02:38:10.432Z,23.56
2023-04-10T02:39:10.494Z,23.54
2023-04-10T02:40:10.482Z,23.57
2023-04-10T02:41:10.524Z,23.59
2023-04-10T02:42:10.556Z,23.54
2023-04-10T02:43:10.610Z,23.53
2023-04-10T02:44:10.625Z,23.62
2023-04-10T02:45:10.691Z,23.53
2023-04-10T02:46:10.739Z,23.56
2023-04-10T02:47:10.745Z,23.53
2023-04-10T02:48:10.764Z,23.56
2023-04-10T02:49:10.780Z,23.65
2023-04-10T02:50:10.929Z,23.59
2023-04-10T02:51:10.873Z,23.57
2023-04-10T02:52:10.876Z,23.56
2023-04-10T02:53:10.920Z,23.62
2023-04-10T02:54:10.966Z,23.62
2023-04-10T02:55:11.000Z,23.57
2023-04-10T02:56:11.028Z,23.56
2023-04-10T02:57:11.058Z,23.56
2023-04-10T02:58:12.132Z,23.54
2023-04-10T02:59:11.112Z,23.60
2023-04-10T03:00:11.084Z,23.57
2023-04-10T03:01:11.082Z,23.56
2023-04-10T03:02:11.114Z,23.60
2023-04-10T03:03:11.247Z,23.57
2023-04-10T03:04:11.118Z,23.60
2023-04-10T03:05:11.064Z,23.62
2023-04-10T03:06:11.056Z,23.60
2023-04-10T03:07:11.019Z,23.60
2023-04-10T03:08:11.052Z,23.63
2023-04-10T03:09:11.019Z,23.60
2023-04-10T03:10:10.997Z,23.57
2023-04-10T03:11:11.009Z,23.64
2023-04-10T03:12:11.029Z,23.61
2023-04-10T03:13:10.982Z,23.60
2023-04-10T03:14:11.027Z,23.60
2023-04-10T03:15:10.972Z,23.67
2023-04-10T03:16:11.068Z,23.60
2023-04-10T03:17:10.976Z,23.61
2023-04-10T03:18:11.018Z,23.63
2023-04-10T03:19:10.948Z,23.61
2023-04-10T03:20:10.933Z,23.65
2023-04-10T03:21:10.935Z,23.57
2023-04-10T03:22:10.954Z,23.60
2023-04-10T03:23:10.923Z,23.61
2023-04-10T03:24:10.918Z,23.65
2023-04-10T03:25:10.914Z,23.63
2023-04-10T03:26:10.915Z,23.63
2023-04-10T03:27:10.901Z,23.61
2023-04-10T03:28:10.915Z,23.65
2023-04-10T03:29:10.883Z,23.61
2023-04-10T03:30:10.848Z,23.64
2023-04-10T03:31:10.921Z,23.58
2023-04-10T03:32:10.851Z,23.64
2023-04-10T03:33:10.830Z,23.61
2023-04-10T03:34:10.843Z,23.65
2023-04-10T03:35:10.835Z,23.63
2023-04-10T03:36:10.887Z,23.63
2023-04-10T03:37:10.818Z,23.65
2023-04-10T03:38:10.807Z,23.68
2023-04-10T03:39:10.825Z,23.64
2023-04-10T03:40:10.837Z,23.66
2023-04-10T03:41:10.813Z,23.61
2023-04-10T03:42:10.776Z,23.64
2023-04-10T03:43:10.810Z,23.63
2023-04-10T03:44:10.796Z,23.64
2023-04-10T03:45:10.782Z,23.63
2023-04-10T03:46:10.772Z,23.66
2023-04-10T03:47:10.776Z,23.65
2023-04-10T03:48:10.779Z,23.64
2023-04-10T03:49:10.772Z,23.65
2023-04-10T03:50:10.753Z,23.64
2023-04-10T03:51:10.759Z,23.68
2023-04-10T03:52:10.771Z,23.66
2023-04-10T03:53:10.803Z,23.63
2023-04-10T03:54:10.873Z,23.62
2023-04-10T03:55:10.921Z,23.66
2023-04-10T03:56:11.024Z,23.64
2023-04-10T03:57:11.028Z,23.62
2023-04-10T03:58:11.106Z,23.66
2023-04-10T03:59:11.113Z,23.62
2023-04-10T04:00:11.176Z,23.68
2023-04-10T04:01:11.249Z,23.63
2023-04-10T04:02:11.347Z,23.68
2023-04-10T04:03:11.562Z,23.65
2023-04-10T04:04:11.719Z,23.56
2023-04-10T04:05:11.543Z,23.48
2023-04-10T04:06:11.480Z,23.42
2023-04-10T04:07:11.520Z,23.22
2023-04-10T04:08:11.582Z,23.11
2023-04-10T04:09:11.641Z,23.04
2023-04-10T04:10:11.654Z,22.93
2023-04-10T04:11:11.743Z,22.87
2023-04-10T04:12:11.829Z,22.84
2023-04-10T04:13:11.866Z,22.58
2023-04-10T04:14:11.956Z,22.63
2023-04-10T04:15:11.982Z,22.50
2023-04-10T04:16:12.145Z,22.45
2023-04-10T04:17:12.106Z,22.41
2023-04-10T04:18:12.170Z,22.29
2023-04-10T04:19:12.218Z,22.27
2023-04-10T04:20:12.278Z,22.27
2023-04-10T04:21:12.324Z,22.18
2023-04-10T04:22:12.394Z,22.09
2023-04-10T04:23:12.435Z,22.09
2023-04-10T04:24:12.510Z,22.04
2023-04-10T04:25:12.569Z,21.92
2023-04-10T04:26:12.593Z,21.83
2023-04-10T04:27:12.670Z,21.81
2023-04-10T04:28:12.756Z,21.83
2023-04-10T04:29:12.751Z,21.77
2023-04-10T04:30:12.819Z,21.75
2023-04-10T04:31:12.913Z,21.71
2023-04-10T04:32:13.177Z,21.80
2023-04-10T04:33:13.030Z,21.75
2023-04-10T04:34:13.092Z,21.68
2023-04-10T04:35:13.150Z,21.76
2023-04-10T04:36:13.199Z,21.70
2023-04-10T04:37:13.266Z,21.72
2023-04-10T04:38:13.319Z,21.75
2023-04-10T04:39:13.333Z,21.83
2023-04-10T04:40:13.450Z,21.79
2023-04-10T04:41:13.483Z,21.90
2023-04-10T04:42:13.528Z,21.89
2023-04-10T04:43:13.605Z,21.89
2023-04-10T04:44:13.665Z,21.89
2023-04-10T04:45:13.719Z,21.93
2023-04-10T04:46:13.829Z,21.96
2023-04-10T04:47:13.845Z,21.93
2023-04-10T04:48:13.907Z,21.93
2023-04-10T04:49:14.008Z,22.01
2023-04-10T04:50:14.065Z,21.98
2023-04-10T04:51:14.122Z,22.04
2023-04-10T04:52:14.177Z,22.02
2023-04-10T04:53:14.246Z,22.06
2023-04-10T04:54:14.294Z,22.00
2023-04-10T04:55:14.332Z,22.01
2023-04-10T04:56:14.422Z,22.07
2023-04-10T04:57:14.437Z,22.07
2023-04-10T04:58:14.528Z,22.12
2023-04-10T04:59:14.593Z,22.04
2023-04-10T05:00:14.644Z,22.09
2023-04-10T05:01:14.724Z,22.12
2023-04-10T05:02:14.817Z,22.17
2023-04-10T05:03:14.921Z,22.14
2023-04-10T05:04:15.178Z,22.14
2023-04-10T05:05:14.937Z,22.12
2023-04-10T05:06:14.989Z,22.15
2023-04-10T05:07:15.173Z,22.15
2023-04-10T05:08:15.104Z,22.09
2023-04-10T05:09:15.184Z,22.11
2023-04-10T05:10:15.217Z,22.12
2023-04-10T05:11:15.244Z,22.17
2023-04-10T05:12:15.285Z,22.08
2023-04-10T05:13:15.671Z,22.07
2023-04-10T05:14:15.449Z,22.08
2023-04-10T05:15:15.463Z,22.08
2023-04-10T05:16:15.616Z,22.04
2023-04-10T05:17:15.562Z,22.05
2023-04-10T05:18:15.728Z,22.05
2023-04-10T05:19:15.703Z,22.02
2023-04-10T05:20:15.755Z,21.97
2023-04-10T05:21:15.779Z,22.00
2023-04-10T05:22:18.029Z,22.01
2023-04-10T05:23:15.813Z,22.03
2023-04-10T05:24:15.820Z,21.97
2023-04-10T05:25:15.796Z,21.98
2023-04-10T05:26:15.802Z,21.94
2023-04-10T05:27:15.770Z,21.94
2023-04-10T05:28:15.805Z,21.93
2023-04-10T05:29:15.768Z,21.82
2023-04-10T05:30:15.753Z,21.85
2023-04-10T05:31:15.807Z,21.87
2023-04-10T05:32:15.746Z,21.84
2023-04-10T05:33:15.768Z,21.83
2023-04-10T05:34:15.717Z,21.86
2023-04-10T05:35:15.750Z,21.87
2023-04-10T05:36:15.726Z,21.82
2023-04-10T05:37:15.710Z,21.76
2023-04-10T05:38:15.713Z,21.79
2023-04-10T05:39:15.751Z,21.74
2023-04-10T05:40:15.700Z,21.70
2023-04-10T05:41:15.701Z,21.73
2023-04-10T05:42:15.711Z,21.67
2023-04-10T05:43:15.713Z,21.69
2023-04-10T05:44:15.652Z,21.67
2023-04-10T05:45:15.669Z,21.66
2023-04-10T05:46:15.728Z,21.68
2023-04-10T05:47:15.659Z,21.65
2023-04-10T05:48:15.602Z,21.63
2023-04-10T05:49:15.671Z,21.69
2023-04-10T05:50:15.665Z,21.62
2023-04-10T05:51:15.672Z,21.67
2023-04-10T05:52:15.639Z,21.56
2023-04-10T05:53:15.612Z,21.65
2023-04-10T05:54:15.580Z,21.64
2023-04-10T05:55:15.578Z,21.58
2023-04-10T05:56:15.614Z,21.62
2023-04-10T05:57:15.617Z,21.58
2023-04-10T05:58:15.715Z,21.60
2023-04-10T05:59:15.548Z,21.61
2023-04-10T06:00:15.555Z,21.63
2023-04-10T06:01:15.567Z,21.61
2023-04-10T06:02:15.566Z,21.61
2023-04-10T06:03:15.705Z,21.63
2023-04-10T06:04:15.827Z,21.65
2023-04-10T06:05:15.557Z,21.65
2023-04-10T06:06:15.496Z,21.71
2023-04-10T06:07:15.490Z,21.68
2023-04-10T06:08:15.493Z,21.69
2023-04-10T06:09:15.498Z,21.69
2023-04-10T06:10:15.486Z,21.71
2023-04-10T06:11:15.522Z,21.65
2023-04-10T06:12:15.484Z,21.68
2023-04-10T06:13:15.508Z,21.67
2023-04-10T06:14:15.515Z,21.73
2023-04-10T06:15:15.470Z,21.73
2023-04-10T06:16:15.582Z,21.70
2023-04-10T06:17:15.468Z,21.70
2023-04-10T06:18:15.441Z,21.74
2023-04-10T06:19:15.450Z,21.73
2023-04-10T06:20:15.459Z,21.72
2023-04-10T06:21:15.401Z,21.74
2023-04-10T06:22:15.466Z,21.78
2023-04-10T06:23:15.404Z,21.75
2023-04-10T06:24:15.405Z,21.83
2023-04-10T06:25:15.417Z,21.76
2023-04-10T06:26:15.457Z,21.80
2023-04-10T06:27:15.374Z,21.79
2023-04-10T06:28:16.207Z,21.82
2023-04-10T06:29:15.393Z,21.82
2023-04-10T06:30:15.352Z,21.84
2023-04-10T06:31:15.413Z,21.82
2023-04-10T06:32:15.356Z,21.84
2023-04-10T06:33:15.333Z,21.79
2023-04-10T06:34:15.326Z,21.87
2023-04-10T06:35:15.339Z,21.85
2023-04-10T06:36:15.612Z,21.79
2023-04-10T06:37:15.384Z,21.88
2023-04-10T06:38:15.407Z,21.85
2023-04-10T06:39:15.466Z,21.89
2023-04-10T06:40:15.498Z,21.80
2023-04-10T06:41:15.523Z,21.82
2023-04-10T06:42:15.604Z,21.82
2023-04-10T06:43:15.670Z,21.82
2023-04-10T06:44:15.751Z,21.84
2023-04-10T06:45:15.818Z,21.84
2023-04-10T06:46:15.946Z,21.79
2023-04-10T06:47:15.947Z,21.78
2023-04-10T06:48:16.002Z,21.83
2023-04-10T06:49:16.070Z,21.80
2023-04-10T06:50:16.083Z,21.79
2023-04-10T06:51:16.157Z,21.79
2023-04-10T06:52:16.237Z,21.80
2023-04-10T06:53:16.281Z,21.77
2023-04-10T06:54:16.333Z,21.80
2023-04-10T06:55:16.403Z,21.80
2023-04-10T06:56:16.440Z,21.76
2023-04-10T06:57:16.435Z,21.78
2023-04-10T06:58:16.558Z,21.77
2023-04-10T06:59:16.544Z,21.78
2023-04-10T07:00:16.633Z,21.75
2023-04-10T07:01:16.730Z,21.78
2023-04-10T07:02:16.741Z,21.70
2023-04-10T07:03:16.722Z,21.76
2023-04-10T07:04:16.796Z,21.72
2023-04-10T07:05:17.046Z,21.72
2023-04-10T07:06:16.752Z,21.69
2023-04-10T07:07:16.799Z,21.68
2023-04-10T07:08:16.777Z,21.63
2023-04-10T07:09:16.814Z,21.60
2023-04-10T07:10:16.845Z,21.65
2023-04-10T07:11:16.865Z,21.68
2023-04-10T07:12:16.852Z,21.62
2023-04-10T07:13:16.836Z,21.67
2023-04-10T07:14:16.941Z,21.59
2023-04-10T07:15:16.903Z,21.59
2023-04-10T07:16:16.924Z,21.63
2023-04-10T07:17:16.885Z,21.60
2023-04-10T07:18:16.900Z,21.63
2023-04-10T07:19:16.911Z,21.63
2023-04-10T07:20:16.932Z,21.56
2023-04-10T07:21:16.903Z,21.63
2023-04-10T07:22:16.876Z,21.66
2023-04-10T07:23:16.888Z,21.63
2023-04-10T07:24:16.877Z,21.68
2023-04-10T07:25:16.877Z,21.68
2023-04-10T07:26:16.874Z,21.62
2023-04-10T07:27:16.917Z,21.62
2023-04-10T07:28:16.927Z,21.68
2023-04-10T07:29:16.962Z,21.73
2023-04-10T07:30:16.999Z,21.73
2023-04-10T07:31:17.095Z,21.75
2023-04-10T07:32:17.175Z,21.71
2023-04-10T07:33:17.335Z,21.79
2023-04-10T07:34:17.189Z,21.75
2023-04-10T07:35:17.280Z,21.76
2023-04-10T07:36:17.398Z,21.76
2023-04-10T07:37:17.384Z,21.82
2023-04-10T07:38:17.450Z,21.84
2023-04-10T07:39:17.495Z,21.88
2023-04-10T07:40:17.614Z,21.85
2023-04-10T07:41:17.678Z,21.93
2023-04-10T07:42:17.735Z,21.90
2023-04-10T07:43:17.747Z,21.87
2023-04-10T07:44:17.826Z,21.89
2023-04-10T07:45:17.922Z,21.95
2023-04-10T07:46:18.011Z,21.96
2023-04-10T07:47:18.058Z,22.01
2023-04-10T07:48:18.073Z,22.00
2023-04-10T07:49:18.134Z,22.06
2023-04-10T07:50:18.120Z,22.01
2023-04-10T07:51:18.192Z,22.04
2023-04-10T07:52:18.250Z,22.08
2023-04-10T07:53:18.315Z,22.10
2023-04-10T07:54:18.359Z,22.13
2023-04-10T07:55:18.431Z,22.19
2023-04-10T07:56:18.498Z,22.19
2023-04-10T07:57:18.543Z,22.25
2023-04-10T07:58:18.622Z,22.25
2023-04-10T07:59:18.670Z,22.27
2023-04-10T08:00:18.736Z,22.22
2023-04-10T08:01:18.776Z,22.33
2023-04-10T08:02:18.912Z,22.31
2023-04-10T08:03:19.139Z,22.34
2023-04-10T08:04:19.080Z,22.31
2023-04-10T08:05:19.092Z,22.36
2023-04-10T08:06:19.088Z,22.36
2023-04-10T08:07:19.138Z,22.41
2023-04-10T08:08:19.176Z,22.38
2023-04-10T08:09:19.235Z,22.42
2023-04-10T08:10:19.285Z,22.47
2023-04-10T08:11:19.331Z,22.50
2023-04-10T08:12:19.422Z,22.48
2023-04-10T08:13:19.547Z,22.50
2023-04-10T08:14:19.543Z,22.53
2023-04-10T08:15:19.608Z,22.56
2023-04-10T08:16:19.703Z,22.59
2023-04-10T08:17:19.710Z,22.60
2023-04-10T08:18:19.774Z,22.64
2023-04-10T08:19:19.826Z,22.65
2023-04-10T08:20:19.910Z,22.68
2023-04-10T08:21:19.941Z,22.68
2023-04-10T08:22:20.018Z,22.68
2023-04-10T08:23:21.037Z,22.67
2023-04-10T08:24:20.080Z,22.73
2023-04-10T08:25:20.174Z,22.71
2023-04-10T08:26:20.249Z,22.73
2023-04-10T08:27:20.286Z,22.81
2023-04-10T08:28:20.342Z,22.82
2023-04-10T08:29:20.400Z,22.81
2023-04-10T08:30:20.454Z,22.79
2023-04-10T08:31:20.559Z,22.81
2023-04-10T08:32:20.596Z,22.82
2023-04-10T08:33:20.600Z,22.84
2023-04-10T08:34:20.634Z,22.87
2023-04-10T08:35:20.690Z,22.83
2023-04-10T08:36:20.764Z,22.92
2023-04-10T08:37:20.819Z,22.90
2023-04-10T08:38:20.877Z,22.84
2023-04-10T08:39:20.923Z,22.89
2023-04-10T08:40:20.972Z,22.93
2023-04-10T08:41:21.012Z,22.90
2023-04-10T08:42:21.100Z,22.96
2023-04-10T08:43:21.174Z,23.03
2023-04-10T08:44:21.180Z,23.04
2023-04-10T08:45:21.202Z,23.04
2023-04-10T08:46:21.273Z,23.01
2023-04-10T08:47:21.523Z,23.07
2023-04-10T08:48:21.347Z,22.98
2023-04-10T08:49:21.376Z,23.09
2023-04-10T08:50:21.479Z,23.08
2023-04-10T08:51:26.077Z,23.10
2023-04-10T08:52:22.503Z,23.03
2023-04-10T08:53:21.526Z,23.10
2023-04-10T08:54:21.494Z,23.06
2023-04-10T08:55:21.444Z,23.10
2023-04-10T08:56:21.455Z,23.12
2023-04-10T08:57:21.469Z,23.18
2023-04-10T08:58:21.408Z,23.18
2023-04-10T08:59:21.427Z,23.15
2023-04-10T09:01:22.433Z,23.17
2023-04-10T09:02:21.621Z,23.15
2023-04-10T09:03:21.581Z,23.23
2023-04-10T09:04:21.591Z,23.20
2023-04-10T09:05:21.416Z,23.26
2023-04-10T09:06:22.240Z,23.23
2023-04-10T09:07:21.396Z,23.19
2023-04-10T09:08:21.341Z,23.23
2023-04-10T09:09:21.352Z,23.31
2023-04-10T09:10:21.438Z,23.26
2023-04-10T09:11:21.372Z,23.23
2023-04-10T09:12:21.375Z,23.34
2023-04-10T09:13:21.370Z,23.32
2023-04-10T09:14:21.410Z,23.32
2023-04-10T09:15:21.388Z,23.36
2023-04-10T09:16:21.483Z,23.28
2023-04-10T09:17:21.500Z,23.34
2023-04-10T09:18:21.491Z,23.34
2023-04-10T09:19:21.506Z,23.39
2023-04-10T09:20:21.564Z,23.42
2023-04-10T09:21:21.634Z,23.40
2023-04-10T09:22:21.683Z,23.36
2023-04-10T09:23:21.741Z,23.39
2023-04-10T09:24:21.699Z,23.40
2023-04-10T09:25:21.694Z,23.40
2023-04-10T09:26:21.769Z,23.42
2023-04-10T09:27:21.793Z,23.45
2023-04-10T09:28:21.815Z,23.44
2023-04-10T09:29:21.902Z,23.50
2023-04-10T09:30:21.889Z,23.48
2023-04-10T09:31:21.966Z,23.51
2023-04-10T09:32:22.013Z,23.50
2023-04-10T09:33:22.040Z,23.54
2023-04-10T09:34:22.028Z,23.51
2023-04-10T09:35:22.049Z,23.60
2023-04-10T09:36:22.109Z,23.56
2023-04-10T09:37:22.079Z,23.63
2023-04-10T09:38:22.113Z,23.62
2023-04-10T09:39:22.126Z,23.58
2023-04-10T09:40:22.168Z,23.63
2023-04-10T09:41:22.212Z,23.65
2023-04-10T09:42:22.258Z,23.64
2023-04-10T09:43:22.296Z,23.65
2023-04-10T09:44:22.290Z,23.71
2023-04-10T09:45:22.379Z,23.65
2023-04-10T09:46:22.383Z,23.64
2023-04-10T09:47:22.414Z,23.67
2023-04-10T09:48:22.440Z,23.69
2023-04-10T09:49:22.492Z,23.68
2023-04-10T09:50:22.480Z,23.72
2023-04-10T09:51:22.549Z,23.72
2023-04-10T09:52:22.571Z,23.75
2023-04-10T09:53:22.617Z,23.75
2023-04-10T09:54:22.629Z,23.79
2023-04-10T09:55:22.660Z,23.81
2023-04-10T09:56:22.713Z,23.75
2023-04-10T09:57:22.729Z,23.77
2023-04-10T09:58:22.713Z,23.81
2023-04-10T09:59:22.752Z,23.75
2023-04-10T10:00:22.786Z,23.78
2023-04-10T10:01:23.815Z,23.73
2023-04-10T10:02:22.948Z,23.75
2023-04-10T10:03:23.076Z,23.83
2023-04-10T10:04:22.902Z,23.81
2023-04-10T10:05:22.920Z,23.81
2023-04-10T10:06:22.956Z,23.80
2023-04-10T10:07:22.972Z,23.81
2023-04-10T10:08:23.003Z,23.79
2023-04-10T10:09:23.034Z,23.75
2023-04-10T10:10:23.066Z,23.79
2023-04-10T10:11:23.093Z,23.87
2023-04-10T10:12:23.105Z,23.84
2023-04-10T10:13:23.165Z,23.87
2023-04-10T10:14:23.200Z,23.83
2023-04-10T10:15:23.193Z,23.82
2023-04-10T10:16:23.300Z,23.83
2023-04-10T10:17:23.310Z,23.86
2023-04-10T10:18:23.302Z,23.86
2023-04-10T10:19:23.334Z,23.86
2023-04-10T10:20:23.392Z,23.84
2023-04-10T10:21:23.406Z,23.85
2023-04-10T10:22:23.432Z,23.89
2023-04-10T10:23:23.430Z,23.86
2023-04-10T10:24:23.456Z,23.86
2023-04-10T10:25:23.467Z,23.86
2023-04-10T10:26:23.514Z,23.90
2023-04-10T10:27:23.524Z,23.90
2023-04-10T10:28:23.576Z,23.85
2023-04-10T10:29:23.576Z,23.85
2023-04-10T10:30:29.978Z,23.85
2023-04-10T10:31:24.634Z,23.87
2023-04-10T10:32:23.619Z,23.81
2023-04-10T10:33:23.585Z,23.84
2023-04-10T10:34:23.573Z,23.81
2023-04-10T10:35:24.784Z,23.84
2023-04-10T10:36:23.555Z,23.89
2023-04-10T10:37:23.554Z,23.86
2023-04-10T10:38:23.553Z,23.87
2023-04-10T10:39:23.838Z,23.82
2023-04-10T10:40:23.535Z,23.80
2023-04-10T10:41:23.547Z,23.82
2023-04-10T10:42:23.611Z,23.84
2023-04-10T10:43:23.610Z,23.82
2023-04-10T10:44:23.616Z,23.89
2023-04-10T10:45:23.710Z,23.82
2023-04-10T10:46:23.684Z,23.89
2023-04-10T10:47:23.764Z,23.87
2023-04-10T10:48:23.691Z,23.83
2023-04-10T10:49:23.697Z,23.89
2023-04-10T10:50:24.885Z,23.89
2023-04-10T10:51:23.737Z,23.88
2023-04-10T10:52:23.750Z,23.82
2023-04-10T10:53:23.726Z,23.85
2023-04-10T10:54:23.751Z,23.88
2023-04-10T10:55:23.800Z,23.91
2023-04-10T10:56:23.846Z,23.88
2023-04-10T10:57:23.844Z,23.91
2023-04-10T10:58:23.865Z,23.89
2023-04-10T10:59:23.879Z,23.92
2023-04-10T11:00:23.874Z,23.92
2023-04-10T11:01:23.928Z,23.89
2023-04-10T11:02:24.024Z,23.91
2023-04-10T11:03:24.007Z,23.88
2023-04-10T11:04:23.936Z,23.85
2023-04-10T11:05:23.962Z,23.91
2023-04-10T11:06:23.955Z,23.91
2023-04-10T11:07:23.982Z,23.99
2023-04-10T11:08:24.034Z,23.97
2023-04-10T11:09:24.035Z,23.95
2023-04-10T11:10:24.026Z,23.94
2023-04-10T11:11:24.081Z,23.98
2023-04-10T11:12:24.063Z,23.97
2023-04-10T11:13:24.045Z,23.97
2023-04-10T11:14:24.026Z,23.91
2023-04-10T11:15:24.086Z,24.01
2023-04-10T11:16:24.101Z,23.95
2023-04-10T11:17:24.153Z,24.01
2023-04-10T11:18:24.093Z,24.05
2023-04-10T11:19:24.466Z,24.01
2023-04-10T11:20:24.165Z,24.02
2023-04-10T11:21:24.154Z,24.05
2023-04-10T11:22:24.164Z,24.05
2023-04-10T11:23:24.188Z,24.03
2023-04-10T11:24:24.196Z,24.05
2023-04-10T11:25:24.251Z,24.04
2023-04-10T11:26:24.200Z,24.07
2023-04-10T11:27:24.431Z,24.10
2023-04-10T11:28:24.210Z,24.11
2023-04-10T11:29:24.225Z,24.08
2023-04-10T11:30:24.226Z,24.11
2023-04-10T11:31:24.269Z,24.08
2023-04-10T11:32:24.278Z,24.11
2023-04-10T11:33:24.255Z,24.11
2023-04-10T11:34:24.237Z,24.13
2023-04-10T11:35:24.305Z,24.16
2023-04-10T11:36:24.269Z,24.07
2023-04-10T11:37:24.243Z,24.10
2023-04-10T11:38:24.233Z,24.14
2023-04-10T11:39:24.226Z,24.11
2023-04-10T11:40:24.247Z,24.14
2023-04-10T11:41:24.207Z,24.10
2023-04-10T11:42:24.210Z,24.07
2023-04-10T11:43:24.268Z,24.10
2023-04-10T11:44:24.202Z,24.02
2023-04-10T11:45:24.217Z,24.04
2023-04-10T11:46:24.375Z,24.04
2023-04-10T11:47:24.261Z,24.07
2023-04-10T11:48:24.853Z,24.00
2023-04-10T11:49:24.220Z,24.01
2023-04-10T11:50:24.218Z,24.02
2023-04-10T11:51:24.189Z,24.00
2023-04-10T11:52:24.238Z,23.98
2023-04-10T11:53:24.233Z,24.02
2023-04-10T11:54:24.199Z,23.97
2023-04-10T11:55:24.183Z,23.98
2023-04-10T11:56:24.185Z,23.97
2023-04-10T11:57:24.194Z,23.95
2023-04-10T11:58:24.181Z,23.94
2023-04-10T11:59:24.218Z,23.98
2023-04-10T12:00:24.168Z,23.94
2023-04-10T12:01:24.176Z,23.95
2023-04-10T12:02:24.260Z,23.91
2023-04-10T12:03:24.416Z,23.91
2023-04-10T12:04:24.439Z,23.94
2023-04-10T12:05:24.265Z,23.93
2023-04-10T12:06:24.261Z,23.91
2023-04-10T12:07:24.208Z,23.97
2023-04-10T12:08:24.275Z,23.90
2023-04-10T12:09:24.279Z,23.88
2023-04-10T12:10:24.250Z,23.87
2023-04-10T12:11:24.301Z,23.90
2023-04-10T12:12:24.819Z,23.87
2023-04-10T12:13:24.303Z,23.87
2023-04-10T12:14:24.323Z,23.89
2023-04-10T12:15:24.439Z,23.81
2023-04-10T12:16:24.393Z,23.85
2023-04-10T12:17:24.406Z,23.84
2023-04-10T12:18:24.410Z,23.91
2023-04-10T12:19:24.404Z,23.81
2023-04-10T12:20:24.411Z,23.77
2023-04-10T12:21:24.441Z,23.78
2023-04-10T12:22:24.429Z,23.79
2023-04-10T12:23:24.438Z,23.79
2023-04-10T12:24:24.493Z,23.84
2023-04-10T12:25:24.479Z,23.81
2023-04-10T12:26:24.506Z,23.80
2023-04-10T12:27:24.512Z,23.80
2023-04-10T12:28:24.493Z,23.72
2023-04-10T12:29:24.508Z,23.77
2023-04-10T12:30:24.537Z,23.76
2023-04-10T12:31:24.608Z,23.70
2023-04-10T12:32:24.689Z,23.77
2023-04-10T12:33:24.665Z,23.72
2023-04-10T12:34:24.725Z,23.72
2023-04-10T12:35:24.786Z,23.75
2023-04-10T12:36:24.780Z,23.68
2023-04-10T12:37:24.851Z,23.70
2023-04-10T12:38:24.900Z,23.66
2023-04-10T12:39:24.978Z,23.69
2023-04-10T12:40:24.968Z,23.65
2023-04-10T12:41:25.024Z,23.66
2023-04-10T12:42:25.102Z,23.65
2023-04-10T12:43:25.135Z,23.60
2023-04-10T12:44:25.237Z,23.62
2023-04-10T12:45:25.247Z,23.62
2023-04-10T12:46:25.290Z,23.60
2023-04-10T12:47:25.346Z,23.65
2023-04-10T12:48:25.381Z,23.58
2023-04-10T12:49:26.427Z,23.57
2023-04-10T12:50:25.600Z,23.60
2023-04-10T12:51:25.550Z,23.60
2023-04-10T12:52:25.604Z,23.57
2023-04-10T12:53:25.673Z,23.60